»·PEaware :: N434EP KRKS-KRIF

N434EP :: KRKS-KRIF

FLIGHT INFORMATION

Flight Status: Arrived
Operator: Privately registered:
United States
More flights under this callsign
Pilot: Drew H. (3199)
Aircraft: CESSNA 208 CARAVAN
(C208)
More flights by this aircraft type
Origin: KRKS Rock Springs-Sweetwater
United States
Destination: KRIF Richfield Mun
United States
More flights between these airports :: More routes between these airports
Route: +MTU PUC
File this flight plan on PilotEdge
Remarks:
Altitude:
(Current/Filed)
10,500ft
Speed:
(Current/Filed)
160kts
Departed: 26-Feb-17 07:43 PM
Arrived: 26-Feb-17 09:20 PM
Distance/Time
Traveled:
221nm/1:37
Distance/Time
To Go:
Arrived

Flight Plot

Page will automatically refresh every two minutes.

Flight plan parsing failed; only flown route is shown


Map Options




Map Legend


Flown Route
Filed Route
Departure Airport
Arrival Airport
Navaid (VOR, NDB)
Fix

Horizontal Profiles

Position Reports

Time Latitude Longitude Heading Altitude Ground
Speed
26-Feb-17 19:32 41.598303 -109.072629 13 6764ft 0kts
26-Feb-17 19:33 41.598303 -109.072629 13 6764ft 0kts
26-Feb-17 19:34 41.598303 -109.072629 13 6764ft 0kts
26-Feb-17 19:35 41.598303 -109.072629 13 6764ft 0kts
26-Feb-17 19:36 41.598303 -109.072629 13 6764ft 0kts
26-Feb-17 19:37 41.597901 -109.072281 175 6764ft 8kts
26-Feb-17 19:38 41.596973 -109.072406 183 6764ft 0kts
26-Feb-17 19:39 41.596530 -109.069100 106 6764ft 15kts
26-Feb-17 19:40 41.599208 -109.064553 46 6764ft 19kts
26-Feb-17 19:41 41.598856 -109.060769 107 6764ft 0kts
26-Feb-17 19:42 41.598856 -109.060769 107 6764ft 0kts
26-Feb-17 19:43 41.598847 -109.060730 107 6764ft 3kts
26-Feb-17 19:44 41.589911 -109.072181 230 6935ft 95kts
26-Feb-17 19:45 41.578780 -109.101724 208 7802ft 91kts
26-Feb-17 19:46 41.553310 -109.108148 178 8591ft 95kts
26-Feb-17 19:47 41.528513 -109.117889 202 9326ft 102kts
26-Feb-17 19:48 41.505448 -109.135220 205 10217ft 85kts
26-Feb-17 19:49 41.481667 -109.152795 206 10554ft 114kts
26-Feb-17 19:50 41.450015 -109.175993 207 10529ft 143kts
26-Feb-17 19:51 41.415074 -109.203685 207 10549ft 149kts
26-Feb-17 19:52 41.379461 -109.230675 207 10548ft 145kts
26-Feb-17 19:53 41.344567 -109.256719 206 10549ft 143kts
26-Feb-17 19:54 41.309772 -109.282607 206 10549ft 143kts
26-Feb-17 19:55 41.275050 -109.308390 206 10549ft 143kts
26-Feb-17 19:56 41.239827 -109.334541 207 10550ft 149kts
26-Feb-17 19:57 41.202958 -109.361876 207 10549ft 152kts
26-Feb-17 19:58 41.165865 -109.389319 207 10549ft 153kts
26-Feb-17 19:59 41.128776 -109.416718 207 10549ft 153kts
26-Feb-17 20:00 41.091587 -109.444161 207 10549ft 153kts
26-Feb-17 20:01 41.054339 -109.471608 207 10548ft 153kts
26-Feb-17 20:02 41.017201 -109.498940 207 10548ft 153kts
26-Feb-17 20:03 40.979815 -109.526382 208 10559ft 154kts
26-Feb-17 20:04 40.941659 -109.554316 210 10575ft 159kts
26-Feb-17 20:05 40.903045 -109.582692 210 10575ft 159kts
26-Feb-17 20:06 40.864224 -109.611117 210 10575ft 160kts
26-Feb-17 20:07 40.828937 -109.636916 210 10575ft 160kts
26-Feb-17 20:08 40.790134 -109.665273 209 10547ft 158kts
26-Feb-17 20:09 40.753328 -109.690310 204 11008ft 133kts
26-Feb-17 20:10 40.721831 -109.710955 208 11433ft 135kts
26-Feb-17 20:11 40.688018 -109.737008 211 11566ft 146kts
26-Feb-17 20:12 40.653485 -109.762155 217 11830ft 142kts
26-Feb-17 20:13 40.619476 -109.790221 200 11755ft 158kts
26-Feb-17 20:14 40.577928 -109.817454 206 11357ft 166kts
26-Feb-17 20:15 40.538284 -109.845181 209 11412ft 150kts
26-Feb-17 20:16 40.501075 -109.873382 206 11305ft 158kts
26-Feb-17 20:17 40.463843 -109.900591 210 11427ft 154kts
26-Feb-17 20:18 40.426876 -109.927920 210 11508ft 154kts
26-Feb-17 20:19 40.389233 -109.955622 209 11509ft 156kts
26-Feb-17 20:20 40.351027 -109.983196 209 11509ft 156kts
26-Feb-17 20:21 40.312915 -110.010593 209 11509ft 157kts
26-Feb-17 20:22 40.274612 -110.038068 209 11509ft 157kts
26-Feb-17 20:23 40.236450 -110.065412 209 11509ft 157kts
26-Feb-17 20:24 40.198112 -110.092845 209 11509ft 157kts
26-Feb-17 20:25 40.160341 -110.120107 208 11509ft 157kts
26-Feb-17 20:26 40.126119 -110.155132 221 11509ft 157kts
26-Feb-17 20:27 40.093445 -110.193023 221 11509ft 157kts
26-Feb-17 20:28 40.060821 -110.230760 221 11509ft 157kts
26-Feb-17 20:29 40.028162 -110.268479 221 11510ft 157kts
26-Feb-17 20:30 39.995519 -110.306128 221 11502ft 157kts
26-Feb-17 20:31 39.962459 -110.344205 221 11482ft 158kts
26-Feb-17 20:32 39.929567 -110.382046 221 11482ft 158kts
26-Feb-17 20:33 39.896711 -110.419783 221 11482ft 158kts
26-Feb-17 20:34 39.863722 -110.457634 221 11482ft 158kts
26-Feb-17 20:35 39.830770 -110.495379 221 11482ft 158kts
26-Feb-17 20:36 39.797836 -110.533057 221 11482ft 158kts
26-Feb-17 20:37 39.764785 -110.570824 221 11482ft 158kts
26-Feb-17 20:38 39.731797 -110.608464 221 11482ft 158kts
26-Feb-17 20:39 39.698761 -110.646108 221 11482ft 158kts
26-Feb-17 20:40 39.665815 -110.683601 221 11482ft 158kts
26-Feb-17 20:41 39.632716 -110.721215 221 11482ft 158kts
26-Feb-17 20:42 39.600378 -110.759563 230 11483ft 158kts
26-Feb-17 20:43 39.572418 -110.803661 231 11482ft 158kts
26-Feb-17 20:44 39.544586 -110.847635 231 11482ft 158kts
26-Feb-17 20:45 39.516644 -110.891726 231 11482ft 158kts
26-Feb-17 20:46 39.488768 -110.935642 231 11482ft 158kts
26-Feb-17 20:47 39.460887 -110.979516 231 11482ft 158kts
26-Feb-17 20:48 39.433168 -111.023070 231 11482ft 158kts
26-Feb-17 20:49 39.405191 -111.066959 231 11482ft 158kts
26-Feb-17 20:50 39.377295 -111.110761 230 11482ft 158kts
26-Feb-17 20:51 39.349441 -111.154757 230 11482ft 158kts
26-Feb-17 20:52 39.321464 -111.198548 230 11482ft 158kts
26-Feb-17 20:53 39.293438 -111.242303 230 11482ft 158kts
26-Feb-17 20:54 39.265286 -111.286176 230 11482ft 158kts
26-Feb-17 20:55 39.237250 -111.329798 230 11482ft 158kts
26-Feb-17 20:56 39.209138 -111.373485 230 11482ft 158kts
26-Feb-17 20:57 39.181007 -111.417144 230 11482ft 158kts
26-Feb-17 20:58 39.152847 -111.460792 230 11482ft 158kts
26-Feb-17 20:59 39.115239 -111.467362 128 11500ft 150kts
26-Feb-17 21:00 39.128814 -111.471471 252 11492ft 147kts
26-Feb-17 21:01 39.137569 -111.523836 265 11373ft 155kts
26-Feb-17 21:02 39.127037 -111.582726 254 10660ft 175kts
26-Feb-17 21:03 39.107328 -111.640626 243 9738ft 172kts
26-Feb-17 21:04 39.087533 -111.696433 244 8366ft 175kts
26-Feb-17 21:05 39.070855 -111.754823 244 7311ft 169kts
26-Feb-17 21:06 39.053301 -111.808766 216 6451ft 159kts
26-Feb-17 21:07 39.017523 -111.837678 202 5918ft 145kts
26-Feb-17 21:08 38.981338 -111.857734 205 5711ft 136kts
26-Feb-17 21:09 38.951448 -111.881365 216 5968ft 123kts
26-Feb-17 21:10 38.924882 -111.910737 216 6045ft 125kts
26-Feb-17 21:11 38.899828 -111.941875 220 6158ft 127kts
26-Feb-17 21:12 38.873199 -111.969995 210 6337ft 121kts
26-Feb-17 21:13 38.847020 -111.999191 219 6412ft 127kts
26-Feb-17 21:14 38.820016 -112.027787 214 6676ft 132kts
26-Feb-17 21:15 38.789306 -112.054596 216 6631ft 143kts
26-Feb-17 21:16 38.758231 -112.083902 210 6402ft 130kts
26-Feb-17 21:17 38.732693 -112.091311 28 5921ft 150kts
26-Feb-17 21:18 38.768822 -112.063890 20 5670ft 144kts
26-Feb-17 21:19 38.763255 -112.083024 200 5589ft 86kts
26-Feb-17 21:20 38.745528 -112.093560 200 5351ft 61kts
26-Feb-17 21:21 38.736608 -112.098844 204 5306ft 15kts
26-Feb-17 21:22 38.736669 -112.098033 26 5306ft 0kts
26-Feb-17 21:23 38.736669 -112.098033 26 5307ft 0kts
26-Feb-17 21:24 38.736669 -112.098033 26 5307ft 0kts
26-Feb-17 21:25 38.736669 -112.098033 26 5307ft 0kts
26-Feb-17 21:26 38.736669 -112.098033 26 5307ft 0kts
26-Feb-17 21:27 38.736669 -112.098033 26 5307ft 0kts
26-Feb-17 21:28 38.736669 -112.098033 26 5307ft 0kts
26-Feb-17 21:29 38.736669 -112.098033 26 5307ft 0kts
26-Feb-17 21:30 38.736669 -112.098033 26 5307ft 0kts
26-Feb-17 21:31 38.736669 -112.098033 26 5307ft 0kts
26-Feb-17 21:32 38.736669 -112.098033 26 5307ft 0kts

Navigation Log

Ident Type
Flight plan parsing failed, navigation log unavailable